createdAt,value
2022-09-26T04:08:27.003Z,26.27
2022-09-26T04:11:29.890Z,25.85
2022-09-26T04:14:32.749Z,24.90
2022-09-26T04:17:35.125Z,24.77
2022-09-26T04:20:37.677Z,25.17
2022-09-26T04:23:41.085Z,25.30
2022-09-26T04:26:44.467Z,23.95
2022-09-26T04:29:46.798Z,23.00
2022-09-26T04:32:49.069Z,22.65
2022-09-26T04:35:52.957Z,21.50
2022-09-26T04:38:55.093Z,22.33
2022-09-26T04:41:58.434Z,25.37
2022-09-26T04:45:00.483Z,24.77
2022-09-26T04:48:03.031Z,21.25
2022-09-26T04:51:09.286Z,22.08
2022-09-26T04:54:12.362Z,23.77
2022-09-26T04:57:19.371Z,20.85
2022-09-26T05:00:23.259Z,22.00
2022-09-26T05:03:25.809Z,21.73
2022-09-26T05:06:28.437Z,21.73
2022-09-26T05:09:35.571Z,22.20
2022-09-26T05:12:41.424Z,21.73
2022-09-26T05:15:43.497Z,21.65
2022-09-26T05:18:52.242Z,21.55
2022-09-26T05:21:56.717Z,22.42
2022-09-26T05:25:17.978Z,21.92
2022-09-26T05:28:20.060Z,21.73
2022-09-26T05:31:25.428Z,21.37
2022-09-26T05:34:28.075Z,23.15
2022-09-26T05:37:31.006Z,22.50
2022-09-26T05:40:52.055Z,23.73
2022-09-26T05:43:54.634Z,24.87
2022-09-26T05:46:57.473Z,23.75
2022-09-26T05:50:01.117Z,24.92
2022-09-26T05:53:04.550Z,26.92
2022-09-26T05:56:12.748Z,25.05
2022-09-26T05:59:23.218Z,24.90
2022-09-26T06:02:26.909Z,22.67
2022-09-26T06:05:31.516Z,23.73
2022-09-26T06:08:36.972Z,25.83
2022-09-26T06:11:39.932Z,23.73
2022-09-26T06:14:46.904Z,26.55
2022-09-26T06:17:57.686Z,24.23
2022-09-26T06:21:04.582Z,24.15
2022-09-26T06:24:08.519Z,26.02
2022-09-26T06:27:10.810Z,26.73
2022-09-26T06:30:13.927Z,27.73
2022-09-26T06:33:16.277Z,25.42
2022-09-26T06:36:22.596Z,26.80
2022-09-26T06:39:31.428Z,28.42
2022-09-26T06:42:37.826Z,30.27
2022-09-26T06:45:45.815Z,30.73
2022-09-26T06:51:50.354Z,33.22
2022-09-26T06:54:56.426Z,31.70
2022-09-26T06:57:58.685Z,31.83
2022-09-26T07:01:02.089Z,36.88
2022-09-26T07:04:05.871Z,35.45
2022-09-26T07:07:08.629Z,31.60
2022-09-26T07:10:10.983Z,31.40
2022-09-26T07:13:15.659Z,35.38
2022-09-26T07:16:18.312Z,33.50
2022-09-26T07:19:21.644Z,37.30
2022-09-26T07:22:25.944Z,32.90
2022-09-26T07:25:31.287Z,33.17
2022-09-26T07:28:34.025Z,33.88
2022-09-26T07:31:37.113Z,33.38
2022-09-26T07:34:43.229Z,31.20
2022-09-26T07:37:52.780Z,31.25
2022-09-26T07:40:55.366Z,30.62
2022-09-26T07:47:42.408Z,30.80
2022-09-26T07:50:46.360Z,31.27
2022-09-26T07:53:48.935Z,31.50
2022-09-26T07:56:53.691Z,32.67
2022-09-26T07:59:55.844Z,33.33
2022-09-26T08:03:01.405Z,32.85
2022-09-26T08:06:04.961Z,35.15
2022-09-26T08:09:07.967Z,30.05
2022-09-26T08:12:15.071Z,29.27
2022-09-26T08:15:21.321Z,25.80
2022-09-26T08:18:25.201Z,24.10
2022-09-26T08:21:27.285Z,23.65
2022-09-26T08:24:30.534Z,23.60
2022-09-26T08:27:34.141Z,23.75
2022-09-26T08:30:36.963Z,23.50
2022-09-26T08:33:39.443Z,23.67
2022-09-26T08:36:41.838Z,24.27
2022-09-26T08:39:44.930Z,25.55
2022-09-26T08:43:11.105Z,22.02
2022-09-26T08:46:29.642Z,21.05
2022-09-26T08:49:51.229Z,20.27
2022-09-26T08:53:15.846Z,21.92
2022-09-26T08:56:22.791Z,21.83
2022-09-26T09:03:12.760Z,21.05
2022-09-26T09:06:18.484Z,20.08
2022-09-26T09:09:21.787Z,18.05
2022-09-26T09:12:39.287Z,16.23
2022-09-26T09:16:12.899Z,16.25
2022-09-26T09:19:38.885Z,16.58
2022-09-26T09:23:07.545Z,14.98
2022-09-26T09:30:17.154Z,13.60
2022-09-26T09:33:29.457Z,12.02
2022-09-26T09:36:41.896Z,11.70
2022-09-26T09:39:48.233Z,11.85
2022-09-26T09:43:26.821Z,11.23
2022-09-26T09:46:29.440Z,9.45
2022-09-26T09:49:32.081Z,9.07
2022-09-26T09:53:10.005Z,8.82
2022-09-26T09:56:32.989Z,7.53
2022-09-26T10:00:09.995Z,8.38
2022-09-26T10:03:29.541Z,7.37
2022-09-26T10:06:46.280Z,6.87
2022-09-26T10:09:51.735Z,7.28
2022-09-26T10:13:03.621Z,7.30
2022-09-26T10:16:09.873Z,7.65
2022-09-26T10:19:13.943Z,9.35
2022-09-26T10:22:19.714Z,8.20
2022-09-26T10:25:26.243Z,8.10
2022-09-26T10:31:42.334Z,9.45
2022-09-26T10:35:04.024Z,9.18
2022-09-26T10:38:18.313Z,9.15
2022-09-26T10:41:25.325Z,9.18
2022-09-26T10:44:33.947Z,7.12
2022-09-26T10:47:40.690Z,9.05
2022-09-26T10:50:52.176Z,7.65
2022-09-26T10:54:13.036Z,6.43
2022-09-26T10:57:23.213Z,7.12
2022-09-26T11:00:37.364Z,7.12
2022-09-26T11:03:43.966Z,6.80
2022-09-26T11:06:49.606Z,7.93
2022-09-26T11:09:56.923Z,8.75
2022-09-26T11:13:22.792Z,6.90
2022-09-26T11:16:27.089Z,8.25
2022-09-26T11:19:54.644Z,6.87
2022-09-26T11:23:19.755Z,6.37
2022-09-26T11:26:54.665Z,5.45
2022-09-26T11:30:11.508Z,6.22
2022-09-26T11:33:18.698Z,7.75
2022-09-26T11:37:00.696Z,7.50
2022-09-26T11:40:12.286Z,5.70
2022-09-26T11:43:27.625Z,6.28
2022-09-26T11:46:58.966Z,5.97
2022-09-26T11:50:20.285Z,5.82
2022-09-26T11:53:46.044Z,6.80
2022-09-26T11:57:31.879Z,4.65
2022-09-26T12:00:58.489Z,4.95
2022-09-26T12:04:32.677Z,7.20
2022-09-26T12:07:44.551Z,7.85
2022-09-26T12:11:05.472Z,5.28
2022-09-26T12:14:36.025Z,5.55
2022-09-26T12:18:05.998Z,5.70
2022-09-26T12:21:34.255Z,5.32
2022-09-26T12:24:51.502Z,7.25
2022-09-26T12:28:19.766Z,7.75
2022-09-26T12:31:54.760Z,6.85
2022-09-26T12:35:21.102Z,5.57
2022-09-26T12:38:44.847Z,5.75
2022-09-26T12:42:02.651Z,5.18
2022-09-26T12:45:31.746Z,6.87
2022-09-26T12:49:11.477Z,5.85
2022-09-26T12:52:39.839Z,6.87
2022-09-26T12:55:51.245Z,5.78
2022-09-26T12:59:29.105Z,4.68
2022-09-26T13:02:46.796Z,4.37
2022-09-26T13:06:14.857Z,3.25
2022-09-26T13:09:31.693Z,3.62
2022-09-26T13:12:47.203Z,3.95
2022-09-26T13:16:00.001Z,5.18
2022-09-26T13:19:16.443Z,4.85
2022-09-26T13:22:21.976Z,5.28
2022-09-26T13:25:49.394Z,4.00
2022-09-26T13:29:17.217Z,7.18
2022-09-26T13:32:34.115Z,6.25
2022-09-26T13:35:41.049Z,8.00
2022-09-26T13:39:00.007Z,6.18
2022-09-26T13:42:11.144Z,7.22
2022-09-26T13:45:33.403Z,6.60
2022-09-26T13:48:46.153Z,4.87
2022-09-26T13:52:01.178Z,4.43
2022-09-26T13:55:10.836Z,7.18
2022-09-26T13:58:21.444Z,5.80
2022-09-26T14:01:27.505Z,6.93
2022-09-26T14:04:36.421Z,8.00
2022-09-26T14:07:57.133Z,4.45
2022-09-26T14:11:11.841Z,6.78
2022-09-26T14:14:16.810Z,5.60
2022-09-26T14:17:44.915Z,9.35
2022-09-26T14:20:57.224Z,5.30
2022-09-26T14:24:21.160Z,8.75
2022-09-26T14:27:36.120Z,6.07
2022-09-26T14:30:38.563Z,9.35
2022-09-26T14:33:42.949Z,6.30
2022-09-26T14:36:46.881Z,4.70
2022-09-26T14:40:00.068Z,7.72
2022-09-26T14:43:17.479Z,4.72
2022-09-26T14:46:25.606Z,4.30
2022-09-26T14:49:28.830Z,3.85
2022-09-26T14:52:32.673Z,6.93
2022-09-26T14:55:34.995Z,6.65
2022-09-26T14:58:37.173Z,5.15
2022-09-26T15:01:39.868Z,6.37
2022-09-26T15:04:43.544Z,4.87
2022-09-26T15:07:53.990Z,5.05
2022-09-26T15:10:57.952Z,3.80
2022-09-26T15:14:10.858Z,5.60
2022-09-26T15:17:18.529Z,5.32
2022-09-26T15:20:22.698Z,8.40
2022-09-26T15:23:32.156Z,5.32
2022-09-26T15:26:36.724Z,5.12
2022-09-26T15:29:48.444Z,6.65
2022-09-26T15:32:56.838Z,5.95
2022-09-26T15:36:01.139Z,8.25
2022-09-26T15:39:32.145Z,10.25
2022-09-26T15:42:53.004Z,7.10
2022-09-26T15:45:58.800Z,5.85
2022-09-26T15:49:00.894Z,7.57
2022-09-26T15:52:04.650Z,5.93
2022-09-26T15:55:09.244Z,5.03
